Overview Statistics Trail Chart Weather Telemetry Raw packets
 

This is the latest recevied weather packets stored in our database for station/object 9W2CHF-3. If no packets are shown the sender has not sent any weather packets the latest 10 day(s).

<< 21 22 23 24 25 26 27 >>
Time Temp. Humidity Pressure Rain* Wind** Luminosity Snow
1777100794 40.56° C 47% 1008.5 hPa - - - -
1777099594 41.67° C 44% 1008.9 hPa - - - -
1777098399 41.11° C 46% 1009.2 hPa - - - -
1777097199 41.11° C 45% 1009.4 hPa - - - -
1777095998 42.22° C 42% 1009.7 hPa - - - -
1777094798 41.11° C 45% 1010 hPa - - - -
1777093598 41.11° C 46% 1010.2 hPa - - - -
1777092398 41.11° C 45% 1010.3 hPa - - - -
1777091197 40.56° C 47% 1010.8 hPa - - - -
1777089997 40.56° C 49% 1011.3 hPa - - - -
1777088797 40.56° C 48% 1011.4 hPa - - - -
1777087597 40° C 50% 1011.4 hPa - - - -
1777086396 39.44° C 53% 1011.7 hPa - - - -
1777085196 39.44° C 52% 1011.9 hPa - - - -
1777083996 36.67° C 62% 1011.8 hPa - - - -
1777082796 37.22° C 58% 1011.6 hPa - - - -
1777081596 37.22° C 59% 1011.6 hPa - - - -
1777080396 36.11° C 64% 1011.5 hPa - - - -
1777079196 36.11° C 64% 1011.2 hPa - - - -
1777077996 35.56° C 68% 1010.9 hPa - - - -
1777076796 35° C 73% 1010.6 hPa - - - -
1777075595 33.89° C 75% 1010.3 hPa - - - -
1777074394 33.33° C 80% 1010.1 hPa - - - -
1777073194 30.56° C 94% 1010 hPa - - - -
1777071994 30° C 95% 1009.7 hPa - - - -

* Rain since midnight (hover to see other rain measurements)
** Current wind speed in m/s (hover to see current wind gust speed)